createdAt,value
2022-09-28T00:00:21.583Z,99373.53
2022-09-28T00:02:48.536Z,99363.09
2022-09-28T00:05:15.507Z,99367.09
2022-09-28T00:07:42.647Z,99372.72
2022-09-28T00:10:10.229Z,99376.31
2022-09-28T00:12:37.402Z,99381.91
2022-09-28T00:15:06.711Z,99405.94
2022-09-28T00:17:34.026Z,99413.59
2022-09-28T00:20:01.363Z,99393.47
2022-09-28T00:22:28.510Z,99397.47
2022-09-28T00:24:55.529Z,99414.19
2022-09-28T00:27:22.320Z,99404.25
2022-09-28T00:29:49.033Z,99407.97
2022-09-28T00:32:17.189Z,99397.97
2022-09-28T00:34:48.922Z,99398.75
2022-09-28T00:37:15.798Z,99393.97
2022-09-28T00:39:43.517Z,99397.16
2022-09-28T00:42:14.340Z,99402.00
2022-09-28T00:44:48.133Z,99408.44
2022-09-28T00:47:39.820Z,99418.84
2022-09-28T00:50:11.746Z,99428.03
2022-09-28T00:52:43.004Z,99436.88
2022-09-28T00:55:14.087Z,99432.09
2022-09-28T00:57:46.319Z,99438.94
2022-09-28T01:00:14.064Z,99427.31
2022-09-28T01:02:42.914Z,99423.28
2022-09-28T01:05:11.252Z,99424.50
2022-09-28T01:07:39.079Z,99429.25
2022-09-28T01:10:06.439Z,99413.63
2022-09-28T01:12:33.458Z,99404.41
2022-09-28T01:15:01.940Z,99399.63
2022-09-28T01:17:42.279Z,99391.22
2022-09-28T01:20:43.253Z,99394.38
2022-09-28T01:23:39.105Z,99403.22
2022-09-28T01:26:40.165Z,99416.00
2022-09-28T01:29:16.493Z,99413.63
2022-09-28T01:31:48.890Z,99416.00
2022-09-28T01:34:20.788Z,99416.84
2022-09-28T01:36:50.873Z,99416.03
2022-09-28T01:39:22.397Z,99419.25
2022-09-28T01:41:53.285Z,99402.75
2022-09-28T01:44:23.467Z,99409.56
2022-09-28T01:46:52.435Z,99410.72
2022-09-28T01:49:23.770Z,99409.88
2022-09-28T01:51:55.854Z,99418.16
2022-09-28T01:54:28.303Z,99420.91
2022-09-28T01:57:02.316Z,99428.88
2022-09-28T01:59:30.109Z,99424.09
2022-09-28T02:02:00.717Z,99429.75
2022-09-28T02:04:32.815Z,99434.59
2022-09-28T02:07:05.385Z,99438.31
2022-09-28T02:09:36.513Z,99441.94
2022-09-28T02:12:10.797Z,99451.19
2022-09-28T02:14:41.047Z,99428.50
2022-09-28T02:17:09.773Z,99395.84
2022-09-28T02:19:36.891Z,99405.75
2022-09-28T02:22:14.941Z,99418.13
2022-09-28T02:24:52.264Z,99420.22
2022-09-28T02:27:30.013Z,99430.19
2022-09-28T02:29:56.860Z,99430.13
2022-09-28T02:32:26.154Z,99429.31
2022-09-28T02:34:53.117Z,99434.47
2022-09-28T02:37:19.964Z,99420.44
2022-09-28T02:39:46.713Z,99423.53
2022-09-28T02:42:21.689Z,99419.50
2022-09-28T02:45:06.414Z,99417.91
2022-09-28T02:47:46.507Z,99417.44
2022-09-28T02:50:21.757Z,99426.19
2022-09-28T02:53:19.100Z,99419.34
2022-09-28T02:55:57.768Z,99417.38
2022-09-28T02:58:38.132Z,99417.34
2022-09-28T03:01:16.078Z,99414.53
2022-09-28T03:03:48.687Z,99423.63
2022-09-28T03:06:23.229Z,99425.56
2022-09-28T03:08:55.995Z,99421.53
2022-09-28T03:11:30.436Z,99433.53
2022-09-28T03:13:59.592Z,99430.66
2022-09-28T03:16:27.652Z,99427.47
2022-09-28T03:18:54.540Z,99421.47
2022-09-28T03:21:21.439Z,99426.28
2022-09-28T03:23:48.161Z,99423.00
2022-09-28T03:26:16.915Z,99432.56
2022-09-28T03:28:43.843Z,99418.91
2022-09-28T03:31:12.058Z,99419.81
2022-09-28T03:33:38.929Z,99413.81
2022-09-28T03:36:06.017Z,99411.66
2022-09-28T03:38:32.893Z,99412.31
2022-09-28T03:41:00.708Z,99425.16
2022-09-28T03:43:28.265Z,99431.84
2022-09-28T03:45:55.762Z,99427.03
2022-09-28T03:48:30.018Z,99423.34
2022-09-28T03:51:00.699Z,99417.72
2022-09-28T03:53:29.594Z,99425.81
2022-09-28T03:56:01.798Z,99434.94
2022-09-28T03:58:28.741Z,99435.72
2022-09-28T04:00:55.532Z,99434.50
2022-09-28T04:03:22.343Z,99435.56
2022-09-28T04:05:51.980Z,99433.78
2022-09-28T04:08:19.323Z,99438.94
2022-09-28T04:10:46.411Z,99436.44
2022-09-28T04:13:13.640Z,99433.63
2022-09-28T04:15:40.493Z,99435.56
2022-09-28T04:18:10.913Z,99437.97
2022-09-28T04:20:37.761Z,99435.91
2022-09-28T04:23:05.935Z,99438.19
2022-09-28T04:25:32.704Z,99434.63
2022-09-28T04:28:17.980Z,99451.06
2022-09-28T04:30:46.705Z,99447.78
2022-09-28T04:33:13.489Z,99451.03
2022-09-28T04:35:40.421Z,99441.78
2022-09-28T04:38:08.535Z,99439.06
2022-09-28T04:40:35.391Z,99443.94
2022-09-28T04:43:02.134Z,99442.25
2022-09-28T04:45:28.971Z,99436.66
2022-09-28T04:47:55.833Z,99440.16
2022-09-28T04:50:22.644Z,99451.28
2022-09-28T04:52:49.421Z,99447.59
2022-09-28T04:55:17.636Z,99442.69
2022-09-28T04:57:44.409Z,99440.63
2022-09-28T05:00:12.789Z,99434.22
2022-09-28T05:02:39.698Z,99436.53
2022-09-28T05:05:07.409Z,99436.09
2022-09-28T05:07:34.152Z,99430.47
2022-09-28T05:10:01.626Z,99432.41
2022-09-28T05:12:29.726Z,99435.16
2022-09-28T05:14:56.681Z,99431.13
2022-09-28T05:17:23.677Z,99438.22
2022-09-28T05:19:50.463Z,99434.16
2022-09-28T05:22:17.292Z,99424.22
2022-09-28T05:24:44.876Z,99432.53
2022-09-28T05:27:11.757Z,99431.66
2022-09-28T05:29:39.884Z,99418.44
2022-09-28T05:32:06.953Z,99425.97
2022-09-28T05:34:34.070Z,99421.88
2022-09-28T05:37:00.982Z,99425.34
2022-09-28T05:39:27.807Z,99429.28
2022-09-28T05:41:55.780Z,99420.91
2022-09-28T05:44:22.606Z,99418.56
2022-09-28T05:46:52.661Z,99423.75
2022-09-28T05:49:19.614Z,99426.47
2022-09-28T05:51:46.388Z,99421.56
2022-09-28T05:54:13.132Z,99424.84
2022-09-28T05:56:39.870Z,99424.94
2022-09-28T05:59:06.597Z,99418.16
2022-09-28T06:01:33.547Z,99411.28
2022-09-28T06:04:01.873Z,99410.63
2022-09-28T06:06:28.665Z,99425.25
2022-09-28T06:08:55.588Z,99425.09
2022-09-28T06:11:23.824Z,99440.75
2022-09-28T06:13:53.417Z,99438.94
2022-09-28T06:16:20.726Z,99439.41
2022-09-28T06:18:48.026Z,99441.13
2022-09-28T06:21:16.131Z,99443.50
2022-09-28T06:23:48.189Z,99450.03
2022-09-28T06:26:16.587Z,99445.22
2022-09-28T06:28:43.362Z,99446.91
2022-09-28T06:31:10.433Z,99454.66
2022-09-28T06:33:38.709Z,99454.81
2022-09-28T06:36:05.811Z,99459.84
2022-09-28T06:38:34.153Z,99466.81
2022-09-28T06:41:01.101Z,99459.69
2022-09-28T06:43:34.141Z,99471.47
2022-09-28T06:46:02.278Z,99467.88
2022-09-28T06:48:29.103Z,99479.53
2022-09-28T06:50:55.879Z,99491.53
2022-09-28T06:53:23.685Z,99486.63
2022-09-28T06:55:51.917Z,99494.81
2022-09-28T06:58:20.687Z,99505.53
2022-09-28T07:00:48.870Z,99505.91
2022-09-28T07:03:17.332Z,99513.16
2022-09-28T07:05:45.752Z,99508.28
2022-09-28T07:08:14.422Z,99509.88
2022-09-28T07:10:42.827Z,99511.53
2022-09-28T07:13:33.725Z,99506.31
2022-09-28T07:16:00.469Z,99508.75
2022-09-28T07:18:29.972Z,99506.34
2022-09-28T07:20:57.485Z,99505.94
2022-09-28T07:23:27.512Z,99505.94
2022-09-28T07:25:54.685Z,99503.88
2022-09-28T07:28:23.028Z,99505.09
2022-09-28T07:30:49.951Z,99507.50
2022-09-28T07:33:17.591Z,99514.00
2022-09-28T07:35:50.777Z,99511.19
2022-09-28T07:38:17.665Z,99512.41
2022-09-28T07:41:03.217Z,99513.25
2022-09-28T07:43:31.478Z,99518.91
2022-09-28T07:45:58.523Z,99514.44
2022-09-28T07:48:25.340Z,99520.03
2022-09-28T07:50:54.231Z,99517.97
2022-09-28T07:53:22.943Z,99526.00
2022-09-28T07:55:54.107Z,99535.28
2022-09-28T07:58:21.537Z,99535.78
2022-09-28T08:00:50.574Z,99534.47
2022-09-28T08:03:18.657Z,99539.56
2022-09-28T08:05:46.872Z,99546.28
2022-09-28T08:08:14.020Z,99548.53
2022-09-28T08:10:46.292Z,99549.72
2022-09-28T08:13:15.326Z,99544.84
2022-09-28T08:15:42.712Z,99549.97
2022-09-28T08:18:11.154Z,99552.34
2022-09-28T08:20:56.852Z,99552.19
2022-09-28T08:23:23.975Z,99556.75
2022-09-28T08:25:55.376Z,99560.81
2022-09-28T08:28:23.809Z,99563.47
2022-09-28T08:30:51.434Z,99557.81
2022-09-28T08:33:23.310Z,99566.66
2022-09-28T08:35:57.568Z,99563.81
2022-09-28T08:38:24.735Z,99564.56
2022-09-28T08:41:06.175Z,99567.69
2022-09-28T08:43:51.043Z,99566.44
2022-09-28T08:46:23.895Z,99570.50
2022-09-28T08:49:23.803Z,99568.25
2022-09-28T08:51:51.318Z,99572.28
2022-09-28T08:54:28.912Z,99569.63
2022-09-28T08:56:59.508Z,99569.84
2022-09-28T08:59:31.591Z,99572.06
2022-09-28T09:02:01.276Z,99570.47
2022-09-28T09:04:30.379Z,99574.16
2022-09-28T09:07:21.352Z,99576.81
2022-09-28T09:09:56.519Z,99576.47
2022-09-28T09:12:36.793Z,99577.41
2022-09-28T09:15:21.088Z,99570.69
2022-09-28T09:18:07.735Z,99581.59
2022-09-28T09:20:41.430Z,99579.97
2022-09-28T09:23:15.540Z,99576.25
2022-09-28T09:25:49.687Z,99573.50
2022-09-28T09:28:45.149Z,99580.38
2022-09-28T09:31:26.653Z,99584.38
2022-09-28T09:34:11.631Z,99587.50
2022-09-28T09:36:54.755Z,99586.38
2022-09-28T09:39:37.360Z,99593.69
2022-09-28T09:42:15.357Z,99592.72
2022-09-28T09:45:03.063Z,99590.34
2022-09-28T09:47:33.741Z,99587.00
2022-09-28T09:50:08.385Z,99587.53
2022-09-28T09:52:46.688Z,99589.38
2022-09-28T09:55:18.981Z,99589.91
2022-09-28T09:57:53.153Z,99585.22
2022-09-28T10:00:20.283Z,99593.44
2022-09-28T10:02:48.914Z,99587.28
2022-09-28T10:05:21.275Z,99594.16
2022-09-28T10:07:53.971Z,99592.28
2022-09-28T10:10:26.222Z,99592.94
2022-09-28T10:12:54.017Z,99594.78
2022-09-28T10:15:24.674Z,99590.16
2022-09-28T10:17:52.416Z,99589.69
2022-09-28T10:20:20.097Z,99584.78
2022-09-28T10:22:47.174Z,99594.63
2022-09-28T10:25:15.755Z,99587.28
2022-09-28T10:27:49.233Z,99584.91
2022-09-28T10:30:19.066Z,99592.13
2022-09-28T10:32:47.305Z,99588.41
2022-09-28T10:35:22.595Z,99586.44
2022-09-28T10:37:54.206Z,99587.94
2022-09-28T10:40:31.723Z,99582.84
2022-09-28T10:43:03.289Z,99589.41
2022-09-28T10:45:35.395Z,99589.56
2022-09-28T10:48:06.038Z,99578.38
2022-09-28T10:50:34.405Z,99587.31
2022-09-28T10:53:17.318Z,99582.94
2022-09-28T10:55:57.462Z,99583.88
2022-09-28T10:58:32.040Z,99581.28
2022-09-28T11:01:02.862Z,99592.44
2022-09-28T11:03:30.892Z,99589.34
2022-09-28T11:06:00.799Z,99589.78
2022-09-28T11:08:31.895Z,99597.16
2022-09-28T11:11:05.963Z,99596.91
2022-09-28T11:13:48.064Z,99594.13
2022-09-28T11:16:24.834Z,99595.47
2022-09-28T11:18:51.739Z,99594.91
2022-09-28T11:21:22.788Z,99603.63
2022-09-28T11:23:58.323Z,99600.72
2022-09-28T11:26:26.950Z,99609.22
2022-09-28T11:28:54.155Z,99603.09
2022-09-28T11:31:27.350Z,99607.81
2022-09-28T11:34:04.959Z,99603.84
2022-09-28T11:36:45.956Z,99605.91
2022-09-28T11:39:22.761Z,99612.28
2022-09-28T11:42:01.420Z,99615.09
2022-09-28T11:44:38.105Z,99610.09
2022-09-28T11:47:26.908Z,99606.84
2022-09-28T11:50:00.568Z,99614.28
2022-09-28T11:52:34.421Z,99611.16
2022-09-28T11:55:03.482Z,99610.25
2022-09-28T11:57:37.867Z,99601.22
2022-09-28T12:00:10.761Z,99605.44
2022-09-28T12:02:43.004Z,99613.72
2022-09-28T12:05:20.751Z,99608.00
2022-09-28T12:07:53.186Z,99603.41
2022-09-28T12:10:27.193Z,99615.38
2022-09-28T12:13:01.350Z,99611.06
2022-09-28T12:15:47.227Z,99609.25
2022-09-28T12:18:28.702Z,99609.47
2022-09-28T12:21:05.189Z,99614.47
2022-09-28T12:23:35.893Z,99614.00
2022-09-28T12:26:05.463Z,99604.72
2022-09-28T12:28:39.195Z,99611.38
2022-09-28T12:31:15.940Z,99610.94
2022-09-28T12:33:48.114Z,99609.28
2022-09-28T12:36:30.273Z,99606.25
2022-09-28T12:39:24.047Z,99605.53
2022-09-28T12:42:11.999Z,99602.78
2022-09-28T12:44:59.737Z,99603.78
2022-09-28T12:48:14.383Z,99600.41
2022-09-28T12:50:57.236Z,99605.31
2022-09-28T12:53:39.262Z,99610.00
2022-09-28T12:56:12.016Z,99600.94
2022-09-28T12:59:00.043Z,99605.84
2022-09-28T13:02:01.532Z,99604.66
2022-09-28T13:04:53.016Z,99600.03
2022-09-28T13:07:29.707Z,99608.88
2022-09-28T13:10:13.997Z,99601.34
2022-09-28T13:12:52.998Z,99604.41
2022-09-28T13:15:34.328Z,99599.00
2022-09-28T13:18:10.995Z,99591.84
2022-09-28T13:21:08.024Z,99588.59
2022-09-28T13:23:38.566Z,99588.09
2022-09-28T13:26:14.506Z,99587.72
2022-09-28T13:28:43.167Z,99592.78
2022-09-28T13:31:11.473Z,99593.75
2022-09-28T13:33:43.968Z,99588.41
2022-09-28T13:36:37.125Z,99585.59
2022-09-28T13:39:04.424Z,99593.72
2022-09-28T13:41:33.374Z,99602.59
2022-09-28T13:44:24.399Z,99600.19
2022-09-28T13:47:08.607Z,99601.22
2022-09-28T13:52:12.491Z,99606.28
2022-09-28T13:55:00.148Z,99601.09
2022-09-28T13:57:37.278Z,99606.13
2022-09-28T14:00:16.904Z,99599.19
2022-09-28T14:02:47.849Z,99611.75
2022-09-28T14:05:46.569Z,99591.53
2022-09-28T14:08:30.116Z,99596.72
2022-09-28T14:10:58.004Z,99583.34
2022-09-28T14:13:59.996Z,99595.25
2022-09-28T14:16:28.626Z,99601.47
2022-09-28T14:18:57.910Z,99598.00
2022-09-28T14:22:10.426Z,99600.56
2022-09-28T14:24:58.510Z,99603.41
2022-09-28T14:27:48.936Z,99601.63
2022-09-28T14:30:22.475Z,99591.06
2022-09-28T14:32:54.787Z,99598.97
2022-09-28T14:35:31.252Z,99595.09
2022-09-28T14:38:22.454Z,99596.09
2022-09-28T14:41:09.427Z,99596.25
2022-09-28T14:43:57.330Z,99595.13
2022-09-28T14:46:32.768Z,99592.72
2022-09-28T14:49:04.287Z,99588.31
2022-09-28T14:52:05.207Z,99591.28
2022-09-28T14:54:45.281Z,99578.72
2022-09-28T14:57:19.489Z,99581.69
2022-09-28T14:59:47.837Z,99589.38
2022-09-28T15:02:24.740Z,99584.94
2022-09-28T15:04:54.964Z,99585.84
2022-09-28T15:07:27.123Z,99583.28
2022-09-28T15:09:55.569Z,99581.44
2022-09-28T15:12:26.609Z,99586.97
2022-09-28T15:14:58.473Z,99579.53
2022-09-28T15:17:28.526Z,99579.34
2022-09-28T15:20:25.550Z,99584.22
2022-09-28T15:22:57.284Z,99594.66
2022-09-28T15:25:26.845Z,99594.50
2022-09-28T15:27:57.057Z,99599.53
2022-09-28T15:30:27.535Z,99591.06
2022-09-28T15:32:56.851Z,99596.75
2022-09-28T15:35:26.358Z,99590.94
2022-09-28T15:37:55.036Z,99590.75
2022-09-28T15:40:31.770Z,99597.34
2022-09-28T15:43:00.299Z,99597.44
2022-09-28T15:45:30.823Z,99597.81
2022-09-28T15:48:19.113Z,99598.19
2022-09-28T15:50:59.215Z,99598.19
2022-09-28T15:53:26.957Z,99586.91
2022-09-28T15:56:03.584Z,99597.81
2022-09-28T15:58:31.695Z,99601.88
2022-09-28T16:01:27.740Z,99597.53
2022-09-28T16:03:55.159Z,99596.81
2022-09-28T16:06:23.103Z,99602.53
2022-09-28T16:08:49.922Z,99604.25
2022-09-28T16:11:21.252Z,99609.88
2022-09-28T16:13:58.011Z,99611.47
2022-09-28T16:16:29.423Z,99608.63
2022-09-28T16:18:58.745Z,99602.13
2022-09-28T16:21:34.812Z,99604.47
2022-09-28T16:24:01.738Z,99605.25
2022-09-28T16:26:32.548Z,99604.66
2022-09-28T16:29:05.899Z,99610.22
2022-09-28T16:31:34.574Z,99602.34
2022-09-28T16:34:11.711Z,99598.28
2022-09-28T16:36:43.630Z,99600.38
2022-09-28T16:39:11.928Z,99611.59
2022-09-28T16:41:40.699Z,99607.56
2022-09-28T16:44:24.448Z,99609.47
2022-09-28T16:46:55.073Z,99609.19
2022-09-28T16:49:23.840Z,99606.63
2022-09-28T16:51:53.920Z,99617.16
2022-09-28T16:54:41.001Z,99616.03
2022-09-28T16:57:10.935Z,99617.22
2022-09-28T16:59:39.100Z,99614.72
2022-09-28T17:02:42.112Z,99617.13
2022-09-28T17:05:06.962Z,99621.78
2022-09-28T17:07:34.280Z,99621.75
2022-09-28T17:10:01.106Z,99622.97
2022-09-28T17:12:28.985Z,99624.63
2022-09-28T17:14:57.644Z,99614.97
2022-09-28T17:17:25.313Z,99622.31
2022-09-28T17:19:52.106Z,99628.38
2022-09-28T17:22:18.905Z,99623.59
2022-09-28T17:24:46.188Z,99627.25
2022-09-28T17:27:18.760Z,99630.50
2022-09-28T17:29:45.587Z,99628.94
2022-09-28T17:32:18.638Z,99631.75
2022-09-28T17:34:55.958Z,99633.81
2022-09-28T17:37:28.578Z,99632.97
2022-09-28T17:39:55.389Z,99624.56
2022-09-28T17:42:22.221Z,99630.50
2022-09-28T17:44:49.082Z,99623.25
2022-09-28T17:47:17.579Z,99630.13
2022-09-28T17:49:46.092Z,99624.91
2022-09-28T17:52:13.163Z,99632.94
2022-09-28T17:54:39.972Z,99636.19
2022-09-28T17:57:06.711Z,99622.13
2022-09-28T17:59:33.514Z,99614.50
2022-09-28T18:02:02.372Z,99625.31
2022-09-28T18:04:50.864Z,99624.91
2022-09-28T18:07:17.858Z,99622.50
2022-09-28T18:09:44.658Z,99620.06
2022-09-28T18:12:11.562Z,99628.06
2022-09-28T18:14:39.915Z,99627.25
2022-09-28T18:17:06.771Z,99621.59
2022-09-28T18:19:34.913Z,99620.41
2022-09-28T18:22:01.914Z,99627.59
2022-09-28T18:24:28.863Z,99623.53
2022-09-28T18:26:55.685Z,99622.31
2022-09-28T18:29:22.461Z,99615.47
2022-09-28T18:31:49.457Z,99626.72
2022-09-28T18:34:16.448Z,99632.34
2022-09-28T18:36:44.800Z,99637.22
2022-09-28T18:39:11.706Z,99635.63
2022-09-28T18:41:38.650Z,99638.09
2022-09-28T18:44:05.511Z,99641.31
2022-09-28T18:46:36.380Z,99640.97
2022-09-28T18:49:03.866Z,99646.59
2022-09-28T18:51:30.810Z,99644.19
2022-09-28T18:54:00.556Z,99630.56
2022-09-28T18:56:27.377Z,99636.97
2022-09-28T18:58:54.326Z,99637.78
2022-09-28T19:01:30.817Z,99640.16
2022-09-28T19:03:59.179Z,99639.78
2022-09-28T19:06:26.184Z,99634.97
2022-09-28T19:08:55.705Z,99638.53
2022-09-28T19:11:25.150Z,99642.53
2022-09-28T19:13:53.541Z,99640.09
2022-09-28T19:16:22.155Z,99638.06
2022-09-28T19:18:50.112Z,99636.38
2022-09-28T19:21:17.148Z,99626.72
2022-09-28T19:23:48.896Z,99637.09
2022-09-28T19:26:20.772Z,99646.72
2022-09-28T19:28:49.346Z,99632.69
2022-09-28T19:31:16.397Z,99647.06
2022-09-28T19:33:46.435Z,99645.44
2022-09-28T19:36:15.767Z,99644.69
2022-09-28T19:38:42.657Z,99647.47
2022-09-28T19:41:10.534Z,99654.63
2022-09-28T19:43:38.313Z,99645.78
2022-09-28T19:46:07.071Z,99653.31
2022-09-28T19:48:34.628Z,99653.75
2022-09-28T19:51:03.662Z,99644.84
2022-09-28T19:53:32.429Z,99649.28
2022-09-28T19:56:03.149Z,99653.28
2022-09-28T19:58:32.407Z,99653.72
2022-09-28T20:00:59.536Z,99654.94
2022-09-28T20:03:28.336Z,99654.16
2022-09-28T20:05:58.929Z,99663.41
2022-09-28T20:08:26.280Z,99661.06
2022-09-28T20:10:54.692Z,99667.41
2022-09-28T20:13:22.069Z,99653.47
2022-09-28T20:15:48.909Z,99658.31
2022-09-28T20:18:16.016Z,99653.94
2022-09-28T20:20:44.270Z,99660.41
2022-09-28T20:23:11.804Z,99659.19
2022-09-28T20:25:38.604Z,99665.97
2022-09-28T20:28:05.567Z,99659.97
2022-09-28T20:30:33.128Z,99660.44
2022-09-28T20:33:00.155Z,99658.75
2022-09-28T20:35:33.082Z,99657.63
2022-09-28T20:38:08.076Z,99657.69
2022-09-28T20:40:38.217Z,99649.22
2022-09-28T20:43:06.591Z,99653.19
2022-09-28T20:45:35.428Z,99653.59
2022-09-28T20:48:06.451Z,99653.56
2022-09-28T20:50:34.130Z,99652.00
2022-09-28T20:53:02.368Z,99653.22
2022-09-28T20:55:29.167Z,99653.59
2022-09-28T20:57:55.907Z,99652.44
2022-09-28T21:00:22.724Z,99663.31
2022-09-28T21:02:53.110Z,99663.31
2022-09-28T21:05:19.989Z,99657.69
2022-09-28T21:07:46.841Z,99654.06
2022-09-28T21:10:15.195Z,99661.28
2022-09-28T21:12:42.026Z,99665.31
2022-09-28T21:15:09.653Z,99668.91
2022-09-28T21:17:36.458Z,99666.47
2022-09-28T21:20:04.312Z,99672.97
2022-09-28T21:22:31.080Z,99675.78
2022-09-28T21:24:57.838Z,99668.97
2022-09-28T21:27:26.035Z,99679.44
2022-09-28T21:29:52.754Z,99683.06
2022-09-28T21:32:19.594Z,99675.81
2022-09-28T21:34:46.351Z,99675.41
2022-09-28T21:37:13.113Z,99678.66
2022-09-28T21:39:39.854Z,99671.44
2022-09-28T21:42:06.780Z,99664.97
2022-09-28T21:44:34.934Z,99666.53
2022-09-28T21:47:01.736Z,99670.19
2022-09-28T21:49:28.549Z,99672.22
2022-09-28T21:51:55.469Z,99671.78
2022-09-28T21:54:22.296Z,99668.63
2022-09-28T21:56:49.003Z,99672.22
2022-09-28T21:59:15.767Z,99669.50
2022-09-28T22:01:44.301Z,99666.25
2022-09-28T22:04:11.182Z,99657.84
2022-09-28T22:06:37.966Z,99661.03
2022-09-28T22:09:05.444Z,99664.59
2022-09-28T22:11:32.247Z,99662.19
2022-09-28T22:14:00.230Z,99668.28
2022-09-28T22:16:29.547Z,99666.28
2022-09-28T22:18:58.205Z,99663.47
2022-09-28T22:21:27.156Z,99666.66
2022-09-28T22:23:54.044Z,99666.25
2022-09-28T22:26:23.482Z,99669.06
2022-09-28T22:28:52.002Z,99674.28
2022-09-28T22:31:22.126Z,99671.81
2022-09-28T22:33:49.212Z,99673.47
2022-09-28T22:36:17.436Z,99677.50
2022-09-28T22:38:44.878Z,99673.91
2022-09-28T22:41:12.580Z,99673.47
2022-09-28T22:43:39.295Z,99665.41
2022-09-28T22:46:08.575Z,99671.44
2022-09-28T22:48:35.816Z,99671.47
2022-09-28T22:51:04.054Z,99669.84
2022-09-28T22:53:32.913Z,99667.81
2022-09-28T22:56:01.625Z,99665.75
2022-09-28T22:58:28.337Z,99671.38
2022-09-28T23:00:57.878Z,99672.94
2022-09-28T23:03:24.736Z,99678.13
2022-09-28T23:05:54.882Z,99679.28
2022-09-28T23:08:22.929Z,99663.66
2022-09-28T23:10:51.719Z,99675.25
2022-09-28T23:13:18.545Z,99666.81
2022-09-28T23:15:55.034Z,99669.66
2022-09-28T23:18:21.898Z,99665.63
2022-09-28T23:20:53.155Z,99663.25
2022-09-28T23:23:19.910Z,99663.66
2022-09-28T23:25:46.712Z,99661.63
2022-09-28T23:28:15.167Z,99659.63
2022-09-28T23:30:41.943Z,99672.06
2022-09-28T23:33:11.877Z,99669.28
2022-09-28T23:35:38.703Z,99668.84
2022-09-28T23:38:05.498Z,99672.88
2022-09-28T23:40:32.342Z,99673.25
2022-09-28T23:42:59.110Z,99666.00
2022-09-28T23:45:27.389Z,99664.00
2022-09-28T23:47:54.644Z,99664.38
2022-09-28T23:50:21.437Z,99664.78
2022-09-28T23:52:51.825Z,99662.38
2022-09-28T23:55:19.157Z,99668.78
2022-09-28T23:57:46.313Z,99669.19
